createdAt,value
2018-05-02T00:00:55.860Z,97249.52
2018-05-02T00:03:33.762Z,97247.53
2018-05-02T00:06:04.800Z,97246.86
2018-05-02T00:08:35.802Z,97244.47
2018-05-02T00:11:06.852Z,97240.84
2018-05-02T00:13:37.890Z,97246.79
2018-05-02T00:16:08.948Z,97249.25
2018-05-02T00:18:39.999Z,97244.61
2018-05-02T00:21:10.988Z,97248.05
2018-05-02T00:23:42.000Z,97249.61
2018-05-02T00:26:13.052Z,97251.30
2018-05-02T00:28:44.050Z,97248.92
2018-05-02T00:31:15.086Z,97246.59
2018-05-02T00:33:46.086Z,97263.80
2018-05-02T00:36:17.077Z,97265.23
2018-05-02T00:38:48.081Z,97254.27
2018-05-02T00:41:19.081Z,97259.42
2018-05-02T00:43:50.034Z,97259.66
2018-05-02T00:46:20.990Z,97256.88
2018-05-02T00:49:04.353Z,97257.14
2018-05-02T00:51:35.362Z,97250.59
2018-05-02T00:54:06.394Z,97244.23
2018-05-02T00:56:37.424Z,97238.05
2018-05-02T00:59:08.422Z,97236.20
2018-05-02T01:01:39.389Z,97236.44
2018-05-02T01:04:10.417Z,97227.42
2018-05-02T01:06:41.422Z,97236.33
2018-05-02T01:09:12.415Z,97236.33
2018-05-02T01:11:43.378Z,97238.74
2018-05-02T01:14:14.365Z,97237.40
2018-05-02T01:16:45.403Z,97236.91
2018-05-02T01:19:16.428Z,97226.58
2018-05-02T01:21:47.442Z,97214.93
2018-05-02T01:24:18.431Z,97215.61
2018-05-02T01:26:49.441Z,97215.50
2018-05-02T01:29:20.431Z,97211.67
2018-05-02T01:31:51.371Z,97207.28
2018-05-02T01:34:22.440Z,97212.98
2018-05-02T01:36:53.456Z,97217.23
2018-05-02T01:39:24.458Z,97213.66
2018-05-02T01:41:55.504Z,97213.52
2018-05-02T01:44:26.515Z,97202.42
2018-05-02T01:46:57.475Z,97204.59
2018-05-02T01:49:28.494Z,97210.02
2018-05-02T01:51:59.505Z,97203.52
2018-05-02T01:54:30.524Z,97207.33
2018-05-02T01:57:01.588Z,97210.65
2018-05-02T01:59:32.633Z,97215.12
2018-05-02T02:02:03.647Z,97209.19
2018-05-02T02:04:34.617Z,97208.94
2018-05-02T02:07:05.610Z,97202.59
2018-05-02T02:09:36.655Z,97213.54
2018-05-02T02:12:07.658Z,97205.77
2018-05-02T02:14:38.728Z,97213.17
2018-05-02T02:17:09.768Z,97209.05
2018-05-02T02:19:40.797Z,97206.63
2018-05-02T02:22:11.851Z,97202.53
2018-05-02T02:24:42.864Z,97205.70
2018-05-02T02:27:13.876Z,97198.85
2018-05-02T02:29:44.848Z,97198.05
2018-05-02T02:32:15.822Z,97194.72
2018-05-02T02:34:46.826Z,97199.87
2018-05-02T02:37:17.848Z,97200.92
2018-05-02T02:39:48.854Z,97207.28
2018-05-02T02:42:19.897Z,97204.09
2018-05-02T02:44:50.912Z,97206.08
2018-05-02T02:47:21.904Z,97198.52
2018-05-02T02:49:52.910Z,97193.39
2018-05-02T02:52:23.915Z,97197.75
2018-05-02T02:54:54.964Z,97193.60
2018-05-02T02:57:25.944Z,97190.01
2018-05-02T02:59:56.973Z,97190.41
2018-05-02T03:02:27.952Z,97195.80
2018-05-02T03:04:58.963Z,97187.86
2018-05-02T03:07:29.931Z,97187.17
2018-05-02T03:10:00.916Z,97182.94
2018-05-02T03:12:31.876Z,97189.42
2018-05-02T03:15:02.944Z,97185.32
2018-05-02T03:17:33.958Z,97180.33
2018-05-02T03:20:04.944Z,97179.80
2018-05-02T03:22:35.934Z,97175.20
2018-05-02T03:25:06.942Z,97171.47
2018-05-02T03:27:37.918Z,97170.28
2018-05-02T03:30:08.923Z,97171.86
2018-05-02T03:32:39.935Z,97176.81
2018-05-02T03:35:10.937Z,97168.78
2018-05-02T03:37:41.946Z,97158.73
2018-05-02T03:40:12.995Z,97163.49
2018-05-02T03:42:44.021Z,97160.48
2018-05-02T03:45:15.024Z,97156.52
2018-05-02T03:47:46.040Z,97153.23
2018-05-02T03:50:17.088Z,97152.31
2018-05-02T03:52:48.160Z,97144.80
2018-05-02T03:55:19.168Z,97137.16
2018-05-02T03:57:50.148Z,97121.84
2018-05-02T04:00:33.261Z,97115.34
2018-05-02T04:03:16.660Z,97105.85
2018-05-02T04:06:00.118Z,97104.16
2018-05-02T04:08:31.220Z,97096.08
2018-05-02T04:11:02.238Z,97095.78
2018-05-02T04:13:33.248Z,97096.70
2018-05-02T04:16:04.270Z,97092.22
2018-05-02T04:18:35.238Z,97100.14
2018-05-02T04:21:06.250Z,97099.55
2018-05-02T04:23:37.226Z,97106.66
2018-05-02T04:26:08.281Z,97102.62
2018-05-02T04:28:39.273Z,97097.59
2018-05-02T04:31:10.285Z,97104.47
2018-05-02T04:33:41.300Z,97113.33
2018-05-02T04:36:12.433Z,97105.81
2018-05-02T04:38:43.825Z,97119.52
2018-05-02T04:41:14.919Z,97112.77
2018-05-02T04:43:46.040Z,97113.50
2018-05-02T04:46:17.022Z,97120.56
2018-05-02T04:48:48.010Z,97119.44
2018-05-02T04:51:19.079Z,97117.44
2018-05-02T04:53:50.065Z,97125.56
2018-05-02T04:56:21.101Z,97123.52
2018-05-02T04:58:52.080Z,97122.39
2018-05-02T05:01:23.084Z,97126.83
2018-05-02T05:03:54.091Z,97131.06
2018-05-02T05:06:25.104Z,97123.08
2018-05-02T05:08:56.103Z,97105.11
2018-05-02T05:11:27.100Z,97093.62
2018-05-02T05:13:58.082Z,97091.44
2018-05-02T05:16:29.132Z,97096.86
2018-05-02T05:19:00.165Z,97101.03
2018-05-02T05:21:31.184Z,97101.73
2018-05-02T05:24:02.148Z,97102.48
2018-05-02T05:26:33.158Z,97096.84
2018-05-02T05:29:04.174Z,97099.31
2018-05-02T05:31:35.196Z,97103.09
2018-05-02T05:34:06.188Z,97104.42
2018-05-02T05:36:37.210Z,97105.61
2018-05-02T05:39:08.194Z,97107.01
2018-05-02T05:41:39.195Z,97109.28
2018-05-02T05:44:10.207Z,97113.30
2018-05-02T05:46:41.201Z,97115.19
2018-05-02T05:49:12.246Z,97112.52
2018-05-02T05:51:43.262Z,97118.11
2018-05-02T05:54:14.379Z,97123.67
2018-05-02T05:56:45.302Z,97114.52
2018-05-02T05:59:16.361Z,97120.45
2018-05-02T06:01:47.417Z,97117.05
2018-05-02T06:04:18.418Z,97109.89
2018-05-02T06:06:49.396Z,97097.90
2018-05-02T06:09:20.409Z,97095.53
2018-05-02T06:11:51.384Z,97094.20
2018-05-02T06:14:22.415Z,97085.25
2018-05-02T06:16:53.415Z,97081.26
2018-05-02T06:19:24.473Z,97093.05
2018-05-02T06:21:55.502Z,97079.51
2018-05-02T06:24:26.528Z,97084.01
2018-05-02T06:26:57.546Z,97075.16
2018-05-02T06:29:28.520Z,97080.57
2018-05-02T06:31:59.665Z,97083.45
2018-05-02T06:34:30.600Z,97089.67
2018-05-02T06:37:01.679Z,97084.43
2018-05-02T06:39:32.654Z,97086.38
2018-05-02T06:42:03.697Z,97081.41
2018-05-02T06:44:34.687Z,97076.95
2018-05-02T06:47:05.679Z,97080.20
2018-05-02T06:49:36.725Z,97084.64
2018-05-02T06:52:07.714Z,97086.45
2018-05-02T06:54:38.708Z,97086.94
2018-05-02T06:57:09.679Z,97080.85
2018-05-02T06:59:40.674Z,97075.48
2018-05-02T07:02:11.658Z,97079.89
2018-05-02T07:04:42.647Z,97091.77
2018-05-02T07:07:13.642Z,97084.14
2018-05-02T07:12:22.349Z,97071.70
2018-05-02T07:14:53.374Z,97075.17
2018-05-02T07:17:24.379Z,97067.11
2018-05-02T07:19:55.410Z,97069.53
2018-05-02T07:22:26.395Z,97071.14
2018-05-02T07:24:57.392Z,97072.97
2018-05-02T07:27:28.367Z,97072.98
2018-05-02T07:29:59.375Z,97075.66
2018-05-02T07:32:30.414Z,97066.47
2018-05-02T07:35:01.359Z,97062.06
2018-05-02T07:37:32.321Z,97053.50
2018-05-02T07:40:03.324Z,97055.06
2018-05-02T07:42:34.310Z,97047.02
2018-05-02T07:45:05.270Z,97045.38
2018-05-02T07:47:36.246Z,97037.43
2018-05-02T07:50:07.264Z,97028.11
2018-05-02T07:52:38.226Z,97029.06
2018-05-02T07:55:09.276Z,97028.94
2018-05-02T07:57:40.241Z,97023.48
2018-05-02T08:00:11.253Z,97026.02
2018-05-02T08:02:49.219Z,97027.55
2018-05-02T08:05:20.241Z,97023.09
2018-05-02T08:07:51.249Z,97026.47
2018-05-02T08:10:22.273Z,97019.82
2018-05-02T08:12:53.247Z,97015.27
2018-05-02T08:15:24.248Z,97006.07
2018-05-02T08:17:55.240Z,96995.23
2018-05-02T08:20:26.234Z,96996.73
2018-05-02T08:23:04.103Z,96998.30
2018-05-02T08:25:35.079Z,97000.23
2018-05-02T08:28:06.116Z,96991.94
2018-05-02T08:30:37.122Z,97000.21
2018-05-02T08:33:08.127Z,96994.97
2018-05-02T08:35:39.136Z,96991.91
2018-05-02T08:38:10.180Z,96989.52
2018-05-02T08:40:41.183Z,96987.19
2018-05-02T08:43:12.195Z,96963.84
2018-05-02T08:45:43.238Z,96965.64
2018-05-02T08:48:14.290Z,96967.67
2018-05-02T08:50:45.346Z,96962.20
2018-05-02T08:53:16.367Z,96957.25
2018-05-02T08:55:47.387Z,96956.58
2018-05-02T08:58:18.430Z,96961.50
2018-05-02T09:00:49.446Z,96947.31
2018-05-02T09:03:22.953Z,96942.74
2018-05-02T09:05:53.956Z,96937.91
2018-05-02T09:08:24.924Z,96933.25
2018-05-02T09:10:55.929Z,96933.19
2018-05-02T09:13:26.930Z,96921.30
2018-05-02T09:15:57.986Z,96914.70
2018-05-02T09:18:29.018Z,96912.06
2018-05-02T09:21:00.336Z,96907.21
2018-05-02T09:23:31.400Z,96900.00
2018-05-02T09:26:02.446Z,96885.75
2018-05-02T09:28:33.477Z,96881.17
2018-05-02T09:31:04.546Z,96881.78
2018-05-02T09:33:35.579Z,96872.77
2018-05-02T09:36:06.635Z,96872.88
2018-05-02T09:38:37.653Z,96857.35
2018-05-02T09:41:08.666Z,96846.72
2018-05-02T09:43:39.700Z,96859.17
2018-05-02T09:46:10.744Z,96859.56
2018-05-02T09:48:41.813Z,96850.50
2018-05-02T09:51:12.791Z,96855.26
2018-05-02T09:53:43.789Z,96857.22
2018-05-02T09:56:14.876Z,96863.36
2018-05-02T09:58:45.892Z,96856.89
2018-05-02T10:01:16.909Z,96863.61
2018-05-02T10:03:47.960Z,96869.92
2018-05-02T10:06:19.004Z,96860.94
2018-05-02T10:08:50.000Z,96849.38
2018-05-02T10:11:21.042Z,96856.23
2018-05-02T10:13:52.018Z,96853.35
2018-05-02T10:16:23.029Z,96870.41
2018-05-02T10:18:54.066Z,96856.13
2018-05-02T10:21:25.097Z,96863.27
2018-05-02T10:23:56.157Z,96862.83
2018-05-02T10:26:27.187Z,96861.75
2018-05-02T10:28:58.207Z,96860.76
2018-05-02T10:31:29.226Z,96868.53
2018-05-02T10:34:00.218Z,96862.44
2018-05-02T10:36:31.248Z,96860.27
2018-05-02T10:39:02.328Z,96858.91
2018-05-02T10:41:33.363Z,96861.50
2018-05-02T10:44:04.378Z,96867.94
2018-05-02T10:46:35.419Z,96855.09
2018-05-02T10:49:06.452Z,96851.63
2018-05-02T10:51:37.562Z,96857.03
2018-05-02T10:54:08.640Z,96859.45
2018-05-02T10:56:39.821Z,96852.23
2018-05-02T10:59:10.898Z,96852.61
2018-05-02T11:01:41.962Z,96848.47
2018-05-02T11:04:13.178Z,96849.31
2018-05-02T11:06:44.249Z,96851.59
2018-05-02T11:09:15.302Z,96852.95
2018-05-02T11:11:46.345Z,96854.33
2018-05-02T11:14:17.460Z,96849.56
2018-05-02T11:16:48.540Z,96852.41
2018-05-02T11:19:19.591Z,96849.00
2018-05-02T11:21:50.656Z,96857.58
2018-05-02T11:24:21.678Z,96859.47
2018-05-02T11:26:52.793Z,96858.69
2018-05-02T11:29:23.861Z,96850.47
2018-05-02T11:31:54.928Z,96850.64
2018-05-02T11:34:26.014Z,96844.08
2018-05-02T11:36:57.134Z,96847.44
2018-05-02T11:39:28.194Z,96841.89
2018-05-02T11:41:59.300Z,96844.38
2018-05-02T11:44:30.376Z,96843.23
2018-05-02T11:47:01.470Z,96833.91
2018-05-02T11:49:33.211Z,96855.20
2018-05-02T11:52:04.297Z,96853.23
2018-05-02T11:54:35.420Z,96851.50
2018-05-02T11:57:06.531Z,96849.08
2018-05-02T11:59:37.573Z,96856.22
2018-05-02T12:02:08.679Z,96849.38
2018-05-02T12:04:39.733Z,96845.81
2018-05-02T12:07:10.797Z,96847.59
2018-05-02T12:09:41.860Z,96847.02
2018-05-02T12:12:12.926Z,96844.52
2018-05-02T12:14:44.002Z,96845.01
2018-05-02T12:17:15.113Z,96844.09
2018-05-02T12:19:46.226Z,96839.51
2018-05-02T12:22:17.320Z,96841.74
2018-05-02T12:24:48.400Z,96836.39
2018-05-02T12:27:19.474Z,96838.59
2018-05-02T12:29:50.617Z,96832.00
2018-05-02T12:32:21.669Z,96836.83
2018-05-02T12:34:52.754Z,96827.06
2018-05-02T12:37:23.833Z,96824.05
2018-05-02T12:39:55.562Z,96809.52
2018-05-02T12:42:26.691Z,96806.28
2018-05-02T12:44:57.753Z,96800.17
2018-05-02T12:47:28.859Z,96780.22
2018-05-02T12:50:00.522Z,96785.28
2018-05-02T12:52:31.576Z,96774.59
2018-05-02T12:55:02.635Z,96776.92
2018-05-02T12:57:34.375Z,96763.86
2018-05-02T13:00:05.476Z,96755.25
2018-05-02T13:02:36.704Z,96760.37
2018-05-02T13:05:07.704Z,96767.39
2018-05-02T13:07:38.799Z,96764.52
2018-05-02T13:10:09.922Z,96767.22
2018-05-02T13:12:41.015Z,96764.94
2018-05-02T13:15:12.106Z,96760.30
2018-05-02T13:17:43.158Z,96760.89
2018-05-02T13:20:14.274Z,96748.95
2018-05-02T13:22:45.356Z,96746.17
2018-05-02T13:25:16.442Z,96734.81
2018-05-02T13:27:47.498Z,96740.03
2018-05-02T13:30:18.584Z,96731.22
2018-05-02T13:32:49.642Z,96732.12
2018-05-02T13:35:20.740Z,96725.22
2018-05-02T13:37:51.794Z,96724.43
2018-05-02T13:40:22.868Z,96725.39
2018-05-02T13:42:53.948Z,96723.01
2018-05-02T13:45:25.010Z,96713.00
2018-05-02T13:47:56.082Z,96712.02
2018-05-02T13:50:27.235Z,96710.66
2018-05-02T13:52:58.308Z,96710.84
2018-05-02T13:55:29.489Z,96709.09
2018-05-02T13:58:00.524Z,96710.58
2018-05-02T14:00:31.675Z,96708.40
2018-05-02T14:03:02.789Z,96710.91
2018-05-02T14:05:33.911Z,96706.22
2018-05-02T14:08:04.931Z,96709.48
2018-05-02T14:10:35.936Z,96700.78
2018-05-02T14:13:06.967Z,96692.86
2018-05-02T14:15:37.971Z,96688.36
2018-05-02T14:18:08.958Z,96686.91
2018-05-02T14:20:39.965Z,96690.12
2018-05-02T14:23:10.928Z,96689.61
2018-05-02T14:25:41.926Z,96684.54
2018-05-02T14:28:12.944Z,96680.41
2018-05-02T14:30:43.923Z,96685.00
2018-05-02T14:33:14.937Z,96684.39
2018-05-02T14:35:45.938Z,96678.11
2018-05-02T14:38:17.010Z,96679.61
2018-05-02T14:40:48.006Z,96678.32
2018-05-02T14:43:19.012Z,96681.03
2018-05-02T14:45:50.059Z,96683.20
2018-05-02T14:48:21.059Z,96681.02
2018-05-02T14:50:52.073Z,96677.30
2018-05-02T14:53:23.067Z,96683.20
2018-05-02T14:55:54.079Z,96686.73
2018-05-02T14:58:25.094Z,96682.05
2018-05-02T15:00:56.067Z,96681.39
2018-05-02T15:03:27.069Z,96685.33
2018-05-02T15:05:58.085Z,96683.77
2018-05-02T15:08:29.073Z,96680.47
2018-05-02T15:11:00.086Z,96674.34
2018-05-02T15:13:38.185Z,96665.07
2018-05-02T15:16:09.217Z,96665.19
2018-05-02T15:18:41.065Z,96666.44
2018-05-02T15:21:12.115Z,96664.80
2018-05-02T15:23:43.050Z,96668.63
2018-05-02T15:26:14.061Z,96664.59
2018-05-02T15:28:45.080Z,96669.77
2018-05-02T15:31:16.071Z,96663.42
2018-05-02T15:33:47.076Z,96671.03
2018-05-02T15:36:18.061Z,96673.80
2018-05-02T15:38:49.093Z,96665.31
2018-05-02T15:41:20.051Z,96666.25
2018-05-02T15:43:51.067Z,96667.00
2018-05-02T15:46:22.094Z,96672.77
2018-05-02T15:48:53.167Z,96666.23
2018-05-02T15:54:20.114Z,96674.77
2018-05-02T15:56:51.089Z,96677.55
2018-05-02T15:59:22.103Z,96682.14
2018-05-02T16:01:53.121Z,96671.63
2018-05-02T16:04:24.125Z,96671.72
2018-05-02T16:06:55.100Z,96668.00
2018-05-02T16:09:26.149Z,96667.24
2018-05-02T16:11:57.128Z,96671.81
2018-05-02T16:14:28.132Z,96669.17
2018-05-02T16:16:59.138Z,96669.22
2018-05-02T16:19:30.252Z,96669.75
2018-05-02T16:22:01.343Z,96674.21
2018-05-02T16:24:32.336Z,96673.33
2018-05-02T16:27:04.068Z,96670.30
2018-05-02T16:29:35.068Z,96677.99
2018-05-02T16:32:06.099Z,96669.27
2018-05-02T16:34:37.099Z,96667.02
2018-05-02T16:37:08.132Z,96660.63
2018-05-02T16:39:39.146Z,96663.57
2018-05-02T16:42:10.168Z,96667.12
2018-05-02T16:44:41.164Z,96663.58
2018-05-02T16:47:12.172Z,96667.66
2018-05-02T16:49:43.216Z,96675.45
2018-05-02T16:52:14.229Z,96675.22
2018-05-02T16:54:45.267Z,96675.03
2018-05-02T16:57:16.245Z,96671.72
2018-05-02T16:59:47.298Z,96682.22
2018-05-02T17:02:18.294Z,96670.49
2018-05-02T17:04:49.350Z,96671.84
2018-05-02T17:07:20.369Z,96676.08
2018-05-02T17:09:51.329Z,96679.39
2018-05-02T17:12:22.365Z,96678.25
2018-05-02T17:14:53.443Z,96687.29
2018-05-02T17:17:24.466Z,96680.71
2018-05-02T17:19:55.474Z,96678.63
2018-05-02T17:22:26.507Z,96676.47
2018-05-02T17:24:57.565Z,96684.16
2018-05-02T17:27:28.538Z,96683.63
2018-05-02T17:29:59.531Z,96686.45
2018-05-02T17:32:30.514Z,96686.58
2018-05-02T17:35:01.545Z,96687.27
2018-05-02T17:37:32.544Z,96691.42
2018-05-02T17:40:03.664Z,96691.28
2018-05-02T17:42:34.654Z,96687.48
2018-05-02T17:45:05.692Z,96692.20
2018-05-02T17:47:36.674Z,96696.13
2018-05-02T17:50:07.724Z,96696.24
2018-05-02T17:52:38.709Z,96695.64
2018-05-02T17:55:09.719Z,96698.37
2018-05-02T17:57:40.736Z,96692.36
2018-05-02T18:00:11.778Z,96693.55
2018-05-02T18:02:42.916Z,96703.48
2018-05-02T18:05:13.937Z,96693.59
2018-05-02T18:07:44.925Z,96700.95
2018-05-02T18:10:15.986Z,96701.89
2018-05-02T18:12:47.025Z,96698.36
2018-05-02T18:15:18.049Z,96704.39
2018-05-02T18:17:49.045Z,96716.55
2018-05-02T18:20:20.035Z,96730.11
2018-05-02T18:22:51.228Z,96731.06
2018-05-02T18:25:22.143Z,96721.28
2018-05-02T18:27:53.196Z,96724.89
2018-05-02T18:30:24.191Z,96726.90
2018-05-02T18:32:55.178Z,96724.94
2018-05-02T18:35:26.228Z,96725.92
2018-05-02T18:37:57.324Z,96716.77
2018-05-02T18:40:28.294Z,96724.89
2018-05-02T18:42:59.322Z,96723.42
2018-05-02T18:45:30.735Z,96718.15
2018-05-02T18:48:02.598Z,96723.58
2018-05-02T18:50:34.057Z,96719.70
2018-05-02T18:53:05.035Z,96720.28
2018-05-02T18:55:36.056Z,96722.09
2018-05-02T18:58:07.062Z,96725.73
2018-05-02T19:00:38.112Z,96731.47
2018-05-02T19:03:09.111Z,96730.61
2018-05-02T19:05:40.112Z,96731.67
2018-05-02T19:08:11.168Z,96733.70
2018-05-02T19:10:42.177Z,96741.70
2018-05-02T19:13:13.179Z,96753.26
2018-05-02T19:15:44.201Z,96755.67
2018-05-02T19:18:21.324Z,96763.38
2018-05-02T19:20:52.309Z,96758.91
2018-05-02T19:23:23.274Z,96762.75
2018-05-02T19:26:00.236Z,96769.97
2018-05-02T19:28:31.268Z,96769.59
2018-05-02T19:31:08.333Z,96767.78
2018-05-02T19:33:45.441Z,96773.27
2018-05-02T19:36:16.445Z,96775.95
2018-05-02T19:38:47.458Z,96771.92
2018-05-02T19:41:24.621Z,96770.84
2018-05-02T19:44:01.522Z,96778.66
2018-05-02T19:46:32.521Z,96777.25
2018-05-02T19:49:03.500Z,96780.28
2018-05-02T19:51:40.520Z,96787.82
2018-05-02T19:54:11.550Z,96786.86
2018-05-02T19:56:42.584Z,96790.31
